createdAt,value
2023-02-27T00:01:34.528Z,98.40
2023-02-27T00:04:01.681Z,98.40
2023-02-27T00:06:28.885Z,98.60
2023-02-27T00:08:55.599Z,98.50
2023-02-27T00:11:22.323Z,98.60
2023-02-27T00:13:49.293Z,98.70
2023-02-27T00:16:16.174Z,98.60
2023-02-27T00:18:42.940Z,98.90
2023-02-27T00:21:09.592Z,99.90
2023-02-27T00:23:36.298Z,99.90
2023-02-27T00:26:02.946Z,99.90
2023-02-27T00:28:29.813Z,99.90
2023-02-27T00:30:56.534Z,99.80
2023-02-27T00:33:23.583Z,99.60
2023-02-27T00:35:57.036Z,99.30
2023-02-27T00:38:24.017Z,99.10
2023-02-27T00:40:50.822Z,99.60
2023-02-27T00:43:17.465Z,99.60
2023-02-27T00:45:44.144Z,99.60
2023-02-27T00:48:10.820Z,99.70
2023-02-27T00:50:38.017Z,99.90
2023-02-27T00:53:04.672Z,99.90
2023-02-27T00:55:31.338Z,99.70
2023-02-27T00:57:57.988Z,99.60
2023-02-27T01:00:24.790Z,99.50
2023-02-27T01:02:51.539Z,99.80
2023-02-27T01:05:18.785Z,99.90
2023-02-27T01:07:45.489Z,99.90
2023-02-27T01:10:12.784Z,99.40
2023-02-27T01:12:40.019Z,99.60
2023-02-27T01:15:07.258Z,99.90
2023-02-27T01:17:34.147Z,99.90
2023-02-27T01:20:00.836Z,99.90
2023-02-27T01:22:27.535Z,99.90
2023-02-27T01:24:54.174Z,99.90
2023-02-27T01:27:20.820Z,99.90
2023-02-27T01:29:47.492Z,99.90
2023-02-27T01:32:14.257Z,99.90
2023-02-27T01:34:40.968Z,99.90
2023-02-27T01:37:07.634Z,99.90
2023-02-27T01:39:34.450Z,99.90
2023-02-27T01:42:01.329Z,99.90
2023-02-27T01:44:29.270Z,99.90
2023-02-27T01:46:56.387Z,99.90
2023-02-27T01:49:32.401Z,99.90
2023-02-27T01:52:06.211Z,99.90
2023-02-27T01:54:35.700Z,99.90
2023-02-27T01:57:06.596Z,99.90
2023-02-27T01:59:34.836Z,99.90
2023-02-27T02:02:02.998Z,99.90
2023-02-27T02:04:35.036Z,99.90
2023-02-27T02:07:10.777Z,99.90
2023-02-27T02:09:43.705Z,99.90
2023-02-27T02:12:12.594Z,99.90
2023-02-27T02:14:39.312Z,99.90
2023-02-27T02:17:13.612Z,99.90
2023-02-27T02:19:55.387Z,99.90
2023-02-27T02:22:37.319Z,99.90
2023-02-27T02:25:13.057Z,99.90
2023-02-27T02:27:42.766Z,99.90
2023-02-27T02:30:45.084Z,99.90
2023-02-27T02:33:40.591Z,99.90
2023-02-27T02:36:13.029Z,99.90
2023-02-27T02:38:52.396Z,99.90
2023-02-27T02:41:34.337Z,99.90
2023-02-27T02:44:06.880Z,99.90
2023-02-27T02:46:56.819Z,99.90
2023-02-27T02:49:28.111Z,99.90
2023-02-27T02:52:02.589Z,99.90
2023-02-27T02:54:32.332Z,99.90
2023-02-27T02:56:58.959Z,99.70
2023-02-27T02:59:44.387Z,99.90
2023-02-27T03:02:12.243Z,99.90
2023-02-27T03:04:45.552Z,99.90
2023-02-27T03:07:23.844Z,99.90
2023-02-27T03:09:54.510Z,99.90
2023-02-27T03:12:22.363Z,99.90
2023-02-27T03:15:07.932Z,99.80
2023-02-27T03:17:43.604Z,99.70
2023-02-27T03:20:18.945Z,99.40
2023-02-27T03:22:47.307Z,99.60
2023-02-27T03:25:14.485Z,99.60
2023-02-27T03:27:45.053Z,99.30
2023-02-27T03:30:20.892Z,99.70
2023-02-27T03:32:50.544Z,99.90
2023-02-27T03:35:17.232Z,99.90
2023-02-27T03:38:02.394Z,99.90
2023-02-27T03:40:35.348Z,99.90
2023-02-27T03:43:05.107Z,99.90
2023-02-27T03:45:50.644Z,99.90
2023-02-27T03:48:17.377Z,99.90
2023-02-27T03:50:44.318Z,99.90
2023-02-27T03:53:19.054Z,99.90
2023-02-27T03:55:47.525Z,99.90
2023-02-27T03:58:14.286Z,99.90
2023-02-27T04:00:41.020Z,99.90
2023-02-27T04:03:08.155Z,99.90
2023-02-27T04:05:35.277Z,99.90
2023-02-27T04:08:14.171Z,99.90
2023-02-27T04:10:40.789Z,99.90
2023-02-27T04:13:13.632Z,99.90
2023-02-27T04:15:40.282Z,99.90
2023-02-27T04:18:19.141Z,99.90
2023-02-27T04:20:45.794Z,99.90
2023-02-27T04:23:16.650Z,99.90
2023-02-27T04:25:46.062Z,99.90
2023-02-27T04:28:12.748Z,99.90
2023-02-27T04:30:45.473Z,99.90
2023-02-27T04:33:12.130Z,99.90
2023-02-27T04:35:51.170Z,99.90
2023-02-27T04:38:50.174Z,99.90
2023-02-27T04:41:20.713Z,99.90
2023-02-27T04:43:47.830Z,99.90
2023-02-27T04:46:17.654Z,99.90
2023-02-27T04:48:53.577Z,99.90
2023-02-27T04:51:23.120Z,99.90
2023-02-27T04:53:55.264Z,99.90
2023-02-27T04:56:24.930Z,99.90
2023-02-27T04:58:57.138Z,99.90
2023-02-27T05:01:26.292Z,99.90
2023-02-27T05:03:54.150Z,99.90
2023-02-27T05:06:23.296Z,99.90
2023-02-27T05:09:04.937Z,99.90
2023-02-27T05:11:34.497Z,99.90
2023-02-27T05:14:09.948Z,99.90
2023-02-27T05:16:43.439Z,99.90
2023-02-27T05:19:10.314Z,99.90
2023-02-27T05:21:40.628Z,99.90
2023-02-27T05:24:13.925Z,99.90
2023-02-27T05:26:40.605Z,99.90
2023-02-27T05:29:11.596Z,99.90
2023-02-27T05:31:41.311Z,99.90
2023-02-27T05:34:11.153Z,99.90
2023-02-27T05:36:40.629Z,99.90
2023-02-27T05:39:08.912Z,99.90
2023-02-27T05:41:44.936Z,99.90
2023-02-27T05:44:13.970Z,99.90
2023-02-27T05:46:43.841Z,99.90
2023-02-27T05:49:18.782Z,99.90
2023-02-27T05:51:47.002Z,99.90
2023-02-27T05:54:25.267Z,99.90
2023-02-27T05:56:53.793Z,99.90
2023-02-27T05:59:32.489Z,99.90
2023-02-27T06:01:59.225Z,99.90
2023-02-27T06:04:26.122Z,99.90
2023-02-27T06:06:53.178Z,99.90
2023-02-27T06:09:20.552Z,99.90
2023-02-27T06:11:47.992Z,99.90
2023-02-27T06:14:14.692Z,99.90
2023-02-27T06:16:41.441Z,99.90
2023-02-27T06:19:08.128Z,99.90
2023-02-27T06:21:34.757Z,99.90
2023-02-27T06:24:01.435Z,99.90
2023-02-27T06:26:28.421Z,99.90
2023-02-27T06:28:55.279Z,99.90
2023-02-27T06:31:21.914Z,99.90
2023-02-27T06:33:48.764Z,99.90
2023-02-27T06:36:15.449Z,99.90
2023-02-27T06:38:42.183Z,99.90
2023-02-27T06:41:08.916Z,99.90
2023-02-27T06:43:37.117Z,99.90
2023-02-27T06:46:03.947Z,99.90
2023-02-27T06:48:30.669Z,99.90
2023-02-27T06:50:57.542Z,99.90
2023-02-27T06:53:24.536Z,99.90
2023-02-27T06:55:51.222Z,99.90
2023-02-27T06:58:18.052Z,99.90
2023-02-27T07:00:45.131Z,99.90
2023-02-27T07:03:12.542Z,99.90
2023-02-27T07:05:40.714Z,99.90
2023-02-27T07:08:07.572Z,99.90
2023-02-27T07:10:34.223Z,99.90
2023-02-27T07:13:01.002Z,99.90
2023-02-27T07:15:27.710Z,99.90
2023-02-27T07:17:54.541Z,99.90
2023-02-27T07:20:21.252Z,99.90
2023-02-27T07:22:47.906Z,99.70
2023-02-27T07:25:14.633Z,99.50
2023-02-27T07:27:41.478Z,99.50
2023-02-27T07:30:08.573Z,99.60
2023-02-27T07:32:35.220Z,98.90
2023-02-27T07:35:03.343Z,98.30
2023-02-27T07:37:30.003Z,98.40
2023-02-27T07:39:56.642Z,98.80
2023-02-27T07:42:23.320Z,99.10
2023-02-27T07:44:49.981Z,99.40
2023-02-27T07:47:17.813Z,99.30
2023-02-27T07:49:44.589Z,99.50
2023-02-27T07:52:11.534Z,99.30
2023-02-27T07:54:38.437Z,98.90
2023-02-27T07:57:05.319Z,96.90
2023-02-27T07:59:32.093Z,93.40
2023-02-27T08:01:58.745Z,93.10
2023-02-27T08:04:25.469Z,91.70
2023-02-27T08:06:52.195Z,91.80
2023-02-27T08:09:18.863Z,92.00
2023-02-27T08:11:47.254Z,90.60
2023-02-27T08:14:17.511Z,90.70
2023-02-27T08:16:44.278Z,89.90
2023-02-27T08:19:32.051Z,90.40
2023-02-27T08:21:58.932Z,89.60
2023-02-27T08:24:25.590Z,89.20
2023-02-27T08:26:52.507Z,90.50
2023-02-27T08:29:19.378Z,87.50
2023-02-27T08:31:46.922Z,90.10
2023-02-27T08:34:13.705Z,86.50
2023-02-27T08:36:40.479Z,86.30
2023-02-27T08:39:07.900Z,85.30
2023-02-27T08:41:34.574Z,85.00
2023-02-27T08:44:04.403Z,85.60
2023-02-27T08:46:31.509Z,86.50
2023-02-27T08:48:58.533Z,86.70
2023-02-27T08:51:25.536Z,84.80
2023-02-27T08:53:55.089Z,83.70
2023-02-27T08:56:21.907Z,85.00
2023-02-27T08:58:48.716Z,85.20
2023-02-27T09:01:15.551Z,83.20
2023-02-27T09:03:42.403Z,82.90
2023-02-27T09:06:09.092Z,82.70
2023-02-27T09:08:35.978Z,83.40
2023-02-27T09:11:03.128Z,82.60
2023-02-27T09:13:29.910Z,85.30
2023-02-27T09:15:56.794Z,82.50
2023-02-27T09:18:23.723Z,84.80
2023-02-27T09:20:53.419Z,82.90
2023-02-27T09:23:20.188Z,81.90
2023-02-27T09:25:47.345Z,83.00
2023-02-27T09:28:15.195Z,80.00
2023-02-27T09:30:42.008Z,81.00
2023-02-27T09:33:08.850Z,81.90
2023-02-27T09:35:35.754Z,79.90
2023-02-27T09:38:02.446Z,80.40
2023-02-27T09:40:30.731Z,80.30
2023-02-27T09:43:00.699Z,80.80
2023-02-27T09:45:28.649Z,81.60
2023-02-27T09:48:17.773Z,82.20
2023-02-27T09:50:48.475Z,83.20
2023-02-27T09:53:26.907Z,82.20
2023-02-27T09:55:59.911Z,80.20
2023-02-27T09:58:34.801Z,80.60
2023-02-27T10:01:13.428Z,82.30
2023-02-27T10:03:43.410Z,82.20
2023-02-27T10:06:15.169Z,81.60
2023-02-27T10:09:20.157Z,81.30
2023-02-27T10:11:46.796Z,80.20
2023-02-27T10:14:22.147Z,82.90
2023-02-27T10:16:50.593Z,80.90
2023-02-27T10:19:28.606Z,81.70
2023-02-27T10:21:56.526Z,80.30
2023-02-27T10:24:28.622Z,82.20
2023-02-27T10:26:59.515Z,80.30
2023-02-27T10:29:36.695Z,81.10
2023-02-27T10:32:05.570Z,80.30
2023-02-27T10:34:33.105Z,80.10
2023-02-27T10:37:03.953Z,78.80
2023-02-27T10:39:32.216Z,78.50
2023-02-27T10:42:05.603Z,78.60
2023-02-27T10:44:33.327Z,78.30
2023-02-27T10:47:00.049Z,78.40
2023-02-27T10:49:26.706Z,79.30
2023-02-27T10:52:07.508Z,76.30
2023-02-27T10:54:34.224Z,76.40
2023-02-27T10:57:02.347Z,79.20
2023-02-27T10:59:31.764Z,78.50
2023-02-27T11:02:03.940Z,78.20
2023-02-27T11:04:33.470Z,76.00
2023-02-27T11:07:01.339Z,77.50
2023-02-27T11:09:29.325Z,77.30
2023-02-27T11:11:57.510Z,75.80
2023-02-27T11:14:26.255Z,77.60
2023-02-27T11:16:53.823Z,78.00
2023-02-27T11:19:39.203Z,77.70
2023-02-27T11:22:07.571Z,75.40
2023-02-27T11:24:34.496Z,74.40
2023-02-27T11:27:06.400Z,76.20
2023-02-27T11:29:36.077Z,75.20
2023-02-27T11:32:02.826Z,76.00
2023-02-27T11:34:36.678Z,76.60
2023-02-27T11:37:08.465Z,76.10
2023-02-27T11:39:40.566Z,74.80
2023-02-27T11:42:12.628Z,74.30
2023-02-27T11:44:50.876Z,74.10
2023-02-27T11:47:21.311Z,73.80
2023-02-27T11:50:00.025Z,75.70
2023-02-27T11:52:29.725Z,76.80
2023-02-27T11:54:58.590Z,75.50
2023-02-27T11:57:27.916Z,75.50
2023-02-27T11:59:58.453Z,75.60
2023-02-27T12:02:39.476Z,75.00
2023-02-27T12:05:11.951Z,74.30
2023-02-27T12:07:42.761Z,76.30
2023-02-27T12:10:18.800Z,74.80
2023-02-27T12:12:49.335Z,75.80
2023-02-27T12:15:31.247Z,77.30
2023-02-27T12:18:08.182Z,76.70
2023-02-27T12:20:35.108Z,75.00
2023-02-27T12:23:03.482Z,75.60
2023-02-27T12:25:42.204Z,75.60
2023-02-27T12:28:13.576Z,73.70
2023-02-27T12:30:43.315Z,74.70
2023-02-27T12:33:15.993Z,74.30
2023-02-27T12:35:44.435Z,75.40
2023-02-27T12:38:13.415Z,74.10
2023-02-27T12:40:43.960Z,73.50
2023-02-27T12:43:19.811Z,75.10
2023-02-27T12:45:49.519Z,76.10
2023-02-27T12:48:45.154Z,74.40
2023-02-27T12:51:30.672Z,75.50
2023-02-27T12:54:16.238Z,75.20
2023-02-27T12:56:47.285Z,74.60
2023-02-27T12:59:25.769Z,73.60
2023-02-27T13:02:16.176Z,70.30
2023-02-27T13:04:45.562Z,73.30
2023-02-27T13:07:23.210Z,75.00
2023-02-27T13:09:52.924Z,74.10
2023-02-27T13:12:25.784Z,73.70
2023-02-27T13:14:52.421Z,72.90
2023-02-27T13:17:23.635Z,76.70
2023-02-27T13:19:53.058Z,75.10
2023-02-27T13:22:26.027Z,75.20
2023-02-27T13:24:55.242Z,75.10
2023-02-27T13:27:36.710Z,73.10
2023-02-27T13:30:03.387Z,73.20
2023-02-27T13:32:44.337Z,73.60
2023-02-27T13:35:29.968Z,72.70
2023-02-27T13:37:58.380Z,71.30
2023-02-27T13:40:28.129Z,72.10
2023-02-27T13:43:03.131Z,72.60
2023-02-27T13:45:49.359Z,74.10
2023-02-27T13:48:34.364Z,73.40
2023-02-27T13:51:01.439Z,74.80
2023-02-27T13:53:28.634Z,74.00
2023-02-27T13:55:57.513Z,74.60
2023-02-27T13:58:24.800Z,74.40
2023-02-27T14:00:55.901Z,73.70
2023-02-27T14:03:25.732Z,75.40
2023-02-27T14:05:54.094Z,76.70
2023-02-27T14:08:34.150Z,72.40
2023-02-27T14:11:09.940Z,71.50
2023-02-27T14:13:49.243Z,73.50
2023-02-27T14:16:50.966Z,73.90
2023-02-27T14:19:22.752Z,74.50
2023-02-27T14:21:57.040Z,73.80
2023-02-27T14:24:59.947Z,73.30
2023-02-27T14:27:36.486Z,72.80
2023-02-27T14:30:07.597Z,73.70
2023-02-27T14:32:35.418Z,73.80
2023-02-27T14:35:03.290Z,73.80
2023-02-27T14:37:30.733Z,73.70
2023-02-27T14:39:59.679Z,73.00
2023-02-27T14:42:45.867Z,72.80
2023-02-27T14:45:13.998Z,74.40
2023-02-27T14:47:40.861Z,71.60
2023-02-27T14:50:20.464Z,73.60
2023-02-27T14:52:47.135Z,74.20
2023-02-27T14:55:19.126Z,74.10
2023-02-27T14:57:56.321Z,74.20
2023-02-27T15:00:33.976Z,73.00
2023-02-27T15:03:00.911Z,72.90
2023-02-27T15:05:34.724Z,74.30
2023-02-27T15:08:01.690Z,74.60
2023-02-27T15:10:33.198Z,74.60
2023-02-27T15:13:00.908Z,73.70
2023-02-27T15:15:27.840Z,76.20
2023-02-27T15:17:54.990Z,75.60
2023-02-27T15:20:30.095Z,75.90
2023-02-27T15:22:57.827Z,75.90
2023-02-27T15:25:32.389Z,76.60
2023-02-27T15:28:07.410Z,77.00
2023-02-27T15:30:34.203Z,77.20
2023-02-27T15:33:02.802Z,76.50
2023-02-27T15:35:37.669Z,76.50
2023-02-27T15:38:04.479Z,76.40
2023-02-27T15:40:32.995Z,76.60
2023-02-27T15:43:00.208Z,76.90
2023-02-27T15:45:34.343Z,76.80
2023-02-27T15:48:01.182Z,77.60
2023-02-27T15:50:31.428Z,76.20
2023-02-27T15:53:04.237Z,77.20
2023-02-27T15:55:32.700Z,77.10
2023-02-27T15:58:03.505Z,78.60
2023-02-27T16:00:31.689Z,77.70
2023-02-27T16:02:58.840Z,78.40
2023-02-27T16:05:36.086Z,77.90
2023-02-27T16:08:03.745Z,78.00
2023-02-27T16:10:35.611Z,78.30
2023-02-27T16:13:21.697Z,78.30
2023-02-27T16:16:05.898Z,78.70
2023-02-27T16:18:35.407Z,79.40
2023-02-27T16:21:12.646Z,79.00
2023-02-27T16:23:39.498Z,79.00
2023-02-27T16:26:41.881Z,79.70
2023-02-27T16:29:17.287Z,79.10
2023-02-27T16:31:54.632Z,78.70
2023-02-27T16:34:42.917Z,78.70
2023-02-27T16:37:21.920Z,80.30
2023-02-27T16:39:52.406Z,79.70
2023-02-27T16:42:19.436Z,79.30
2023-02-27T16:44:46.281Z,79.60
2023-02-27T16:47:13.127Z,80.20
2023-02-27T16:49:40.617Z,79.70
2023-02-27T16:52:10.482Z,79.60
2023-02-27T16:54:37.379Z,79.70
2023-02-27T16:57:04.508Z,80.00
2023-02-27T16:59:33.661Z,80.70
2023-02-27T17:02:01.446Z,80.90
2023-02-27T17:04:28.713Z,81.90
2023-02-27T17:06:56.129Z,81.10
2023-02-27T17:09:22.861Z,80.10
2023-02-27T17:11:50.235Z,80.30
2023-02-27T17:14:17.223Z,80.70
2023-02-27T17:16:44.230Z,80.20
2023-02-27T17:19:11.026Z,80.20
2023-02-27T17:21:37.735Z,80.70
2023-02-27T17:24:06.229Z,80.60
2023-02-27T17:26:33.924Z,80.30
2023-02-27T17:29:02.653Z,81.20
2023-02-27T17:31:29.631Z,80.10
2023-02-27T17:33:56.487Z,80.70
2023-02-27T17:36:23.627Z,80.70
2023-02-27T17:38:57.402Z,81.70
2023-02-27T17:41:24.161Z,80.60
2023-02-27T17:43:52.194Z,81.40
2023-02-27T17:46:18.929Z,81.00
2023-02-27T17:48:45.621Z,81.00
2023-02-27T17:51:13.774Z,81.50
2023-02-27T17:53:40.680Z,81.20
2023-02-27T17:56:07.821Z,81.60
2023-02-27T17:58:34.662Z,81.40
2023-02-27T18:01:05.686Z,81.80
2023-02-27T18:03:32.903Z,81.90
2023-02-27T18:05:59.684Z,82.50
2023-02-27T18:08:26.362Z,82.70
2023-02-27T18:10:53.529Z,82.60
2023-02-27T18:13:21.834Z,82.90
2023-02-27T18:15:49.701Z,82.90
2023-02-27T18:18:16.443Z,82.90
2023-02-27T18:20:43.143Z,83.90
2023-02-27T18:23:09.973Z,83.30
2023-02-27T18:25:37.346Z,83.80
2023-02-27T18:28:29.425Z,82.80
2023-02-27T18:30:56.643Z,83.40
2023-02-27T18:33:23.502Z,84.30
2023-02-27T18:35:50.590Z,83.80
2023-02-27T18:38:17.524Z,83.70
2023-02-27T18:40:44.592Z,83.30
2023-02-27T18:43:11.792Z,83.60
2023-02-27T18:45:38.939Z,83.80
2023-02-27T18:48:06.423Z,84.00
2023-02-27T18:50:33.314Z,84.10
2023-02-27T18:53:00.672Z,84.10
2023-02-27T18:55:27.571Z,84.20
2023-02-27T18:57:54.439Z,84.00
2023-02-27T19:00:24.345Z,84.60
2023-02-27T19:02:51.925Z,84.50
2023-02-27T19:05:19.183Z,84.50
2023-02-27T19:07:45.944Z,84.90
2023-02-27T19:10:13.147Z,85.90
2023-02-27T19:12:40.338Z,84.80
2023-02-27T19:15:07.483Z,84.60
2023-02-27T19:17:34.306Z,84.90
2023-02-27T19:20:01.139Z,85.40
2023-02-27T19:22:29.768Z,85.70
2023-02-27T19:24:57.400Z,85.50
2023-02-27T19:27:24.415Z,86.20
2023-02-27T19:29:51.477Z,85.80
2023-02-27T19:32:18.401Z,86.20
2023-02-27T19:34:45.320Z,86.00
2023-02-27T19:37:12.404Z,85.90
2023-02-27T19:39:39.189Z,85.60
2023-02-27T19:42:06.258Z,85.60
2023-02-27T19:44:33.039Z,85.80
2023-02-27T19:47:00.306Z,85.20
2023-02-27T19:49:27.253Z,86.10
2023-02-27T19:51:54.644Z,86.40
2023-02-27T19:54:21.587Z,85.80
2023-02-27T19:56:48.257Z,86.90
2023-02-27T19:59:15.020Z,85.90
2023-02-27T20:01:41.812Z,86.00
2023-02-27T20:04:09.073Z,86.70
2023-02-27T20:06:41.949Z,87.00
2023-02-27T20:09:14.479Z,85.10
2023-02-27T20:11:45.363Z,86.00
2023-02-27T20:14:13.897Z,85.90
2023-02-27T20:16:40.878Z,86.00
2023-02-27T20:19:10.121Z,86.50
2023-02-27T20:21:36.853Z,86.30
2023-02-27T20:24:03.662Z,87.10
2023-02-27T20:26:31.290Z,86.70
2023-02-27T20:28:59.722Z,87.10
2023-02-27T20:31:28.458Z,86.20
2023-02-27T20:33:57.094Z,86.40
2023-02-27T20:36:24.319Z,86.10
2023-02-27T20:38:51.049Z,86.70
2023-02-27T20:41:19.659Z,86.60
2023-02-27T20:43:46.579Z,86.50
2023-02-27T20:46:14.885Z,86.60
2023-02-27T20:48:43.653Z,85.80
2023-02-27T20:51:11.857Z,85.60
2023-02-27T20:53:39.566Z,85.60
2023-02-27T20:56:08.581Z,85.70
2023-02-27T20:58:35.954Z,86.10
2023-02-27T21:01:04.382Z,85.80
2023-02-27T21:03:38.414Z,85.80
2023-02-27T21:06:06.669Z,86.20
2023-02-27T21:08:34.876Z,86.10
2023-02-27T21:11:06.149Z,85.30
2023-02-27T21:13:32.812Z,85.60
2023-02-27T21:16:00.002Z,86.00
2023-02-27T21:18:26.789Z,85.20
2023-02-27T21:20:53.439Z,84.80
2023-02-27T21:23:20.085Z,85.60
2023-02-27T21:25:48.229Z,85.40
2023-02-27T21:28:14.876Z,85.70
2023-02-27T21:30:41.644Z,86.40
2023-02-27T21:33:08.361Z,85.40
2023-02-27T21:35:35.104Z,85.30
2023-02-27T21:38:01.779Z,86.10
2023-02-27T21:40:28.554Z,86.80
2023-02-27T21:42:55.266Z,86.50
2023-02-27T21:45:22.016Z,87.30
2023-02-27T21:47:48.686Z,86.80
2023-02-27T21:50:15.538Z,86.90
2023-02-27T21:52:42.472Z,86.30
2023-02-27T21:55:10.088Z,86.20
2023-02-27T21:57:38.201Z,87.50
2023-02-27T22:00:07.821Z,88.30
2023-02-27T22:02:34.667Z,89.60
2023-02-27T22:05:01.368Z,90.10
2023-02-27T22:07:28.034Z,90.40
2023-02-27T22:09:54.789Z,90.70
2023-02-27T22:12:22.253Z,91.20
2023-02-27T22:14:48.926Z,92.20
2023-02-27T22:17:15.646Z,92.70
2023-02-27T22:19:42.345Z,92.90
2023-02-27T22:22:08.997Z,92.60
2023-02-27T22:24:35.645Z,92.60
2023-02-27T22:27:02.293Z,92.30
2023-02-27T22:29:28.985Z,92.60
2023-02-27T22:31:55.689Z,93.20
2023-02-27T22:34:22.444Z,92.80
2023-02-27T22:36:52.229Z,91.50
2023-02-27T22:39:19.417Z,91.30
2023-02-27T22:41:46.313Z,91.60
2023-02-27T22:44:13.810Z,92.60
2023-02-27T22:46:42.262Z,94.00
2023-02-27T22:49:13.730Z,94.20
2023-02-27T22:51:40.689Z,93.70
2023-02-27T22:54:08.326Z,92.70
2023-02-27T22:56:36.523Z,92.70
2023-02-27T22:59:03.605Z,93.10
2023-02-27T23:01:31.543Z,93.70
2023-02-27T23:03:59.654Z,94.10
2023-02-27T23:06:27.523Z,95.20
2023-02-27T23:08:54.620Z,95.70
2023-02-27T23:11:21.303Z,95.80
2023-02-27T23:13:47.982Z,94.50
2023-02-27T23:16:14.708Z,93.70
2023-02-27T23:18:42.652Z,93.40
2023-02-27T23:21:09.585Z,93.40
2023-02-27T23:23:36.344Z,93.70
2023-02-27T23:26:03.540Z,95.40
2023-02-27T23:28:30.391Z,96.40
2023-02-27T23:30:57.236Z,95.60
2023-02-27T23:33:23.952Z,95.30
2023-02-27T23:35:51.877Z,96.50
2023-02-27T23:38:18.961Z,97.00
2023-02-27T23:40:45.884Z,97.20
2023-02-27T23:43:12.535Z,96.90
2023-02-27T23:45:39.605Z,96.40
2023-02-27T23:48:06.509Z,95.60
2023-02-27T23:50:34.886Z,94.90
2023-02-27T23:53:01.838Z,95.50
2023-02-27T23:55:29.206Z,96.70
2023-02-27T23:57:56.726Z,96.60
